Time;durP1;ratioP1;P1;durP2;ratioP2;P2;SDS_P1;SDS_P2;PMS_P1;PMS_P2;Temp;Humidity;BMP_temperature;BMP_pressure;BME280_temperature;BME280_humidity;BME280_pressure;Samples;Min_cycle;Max_cycle;Signal;HPM_P1;HPM_P2
2022/08/27 00:01:49;;;;;;;5.13;2.30;;;;;;;24.10;59.45;97839.97;5020458;28;20056;-62
2022/08/27 00:04:15;;;;;;;5.32;2.20;;;;;;;24.01;60.00;97833.50;5014332;28;20029;-64
2022/08/27 00:06:40;;;;;;;4.13;2.00;;;;;;;24.07;58.86;97835.16;5024011;28;20109;-61
2022/08/27 00:09:06;;;;;;;4.32;2.03;;;;;;;23.78;58.51;97803.50;5027740;28;20022;-62
2022/08/27 00:11:31;;;;;;;4.15;2.20;;;;;;;23.92;58.79;97830.50;5037851;28;20406;-62
2022/08/27 00:13:57;;;;;;;4.20;2.00;;;;;;;23.90;58.58;97828.09;5039039;28;20046;-62
2022/08/27 00:16:23;;;;;;;4.40;1.98;;;;;;;23.88;58.96;97830.19;5039237;28;20021;-62
2022/08/27 00:18:48;;;;;;;4.78;2.35;;;;;;;23.91;59.04;97835.00;5028272;28;20504;-62
2022/08/27 00:21:15;;;;;;;4.18;2.03;;;;;;;23.86;59.07;97834.13;5034130;28;20039;-62
2022/08/27 00:23:40;;;;;;;4.55;2.00;;;;;;;23.86;59.78;97842.91;5029204;28;20028;-62
2022/08/27 00:26:06;;;;;;;4.72;2.35;;;;;;;23.88;59.47;97853.28;5033457;28;20029;-63
2022/08/27 00:28:32;;;;;;;4.32;2.10;;;;;;;23.90;59.40;97843.22;5030741;28;20176;-62
2022/08/27 00:30:58;;;;;;;4.30;2.00;;;;;;;23.94;59.64;97855.72;5018276;28;20527;-62
2022/08/27 00:33:23;;;;;;;4.35;2.20;;;;;;;23.79;59.64;97851.06;5027927;28;20442;-62
2022/08/27 00:35:49;;;;;;;4.35;1.80;;;;;;;23.65;59.90;97823.28;5037118;28;20483;-62
2022/08/27 00:38:15;;;;;;;4.43;1.80;;;;;;;23.78;60.01;97849.44;5029009;28;21970;-61
2022/08/27 00:40:42;;;;;;;4.10;2.05;;;;;;;23.91;60.48;97855.41;5031139;28;20100;-63
2022/08/27 00:43:07;;;;;;;4.30;1.80;;;;;;;23.96;60.26;97850.97;5030486;28;20036;-61
2022/08/27 00:45:37;;;;;;;3.88;1.90;;;;;;;24.04;60.17;97859.53;5033608;28;20036;-62
2022/08/27 00:48:03;;;;;;;4.20;2.10;;;;;;;24.06;60.60;97858.25;5017034;28;20025;-62
2022/08/27 00:50:35;;;;;;;5.80;2.00;;;;;;;24.02;60.35;97851.03;5065256;28;20523;-61
2022/08/27 00:53:05;;;;;;;4.38;2.00;;;;;;;24.05;59.69;97853.97;5036100;28;20068;-61
2022/08/27 00:55:38;;;;;;;5.50;1.92;;;;;;;24.07;60.26;97848.41;5029942;28;20017;-61
2022/08/27 00:58:15;;;;;;;4.05;2.03;;;;;;;24.04;60.49;97843.59;5023696;28;20032;-61
2022/08/27 01:00:41;;;;;;;6.95;2.20;;;;;;;23.83;60.59;97808.91;5019478;28;20029;-63
2022/08/27 01:03:06;;;;;;;5.88;2.10;;;;;;;24.12;60.78;97853.78;5025652;28;20025;-62
2022/08/27 01:05:33;;;;;;;4.70;1.75;;;;;;;23.93;60.72;97819.63;5027791;28;20025;-61
2022/08/27 01:08:05;;;;;;;4.90;2.35;;;;;;;24.08;61.83;97860.66;5017744;28;20993;-61
2022/08/27 01:10:31;;;;;;;3.80;1.75;;;;;;;23.83;62.55;97822.16;5029291;28;20123;-61
2022/08/27 01:12:57;;;;;;;4.85;1.88;;;;;;;23.78;63.23;97819.41;5034316;28;20033;-61
2022/08/27 01:15:25;;;;;;;4.88;2.20;;;;;;;23.98;62.65;97854.19;5069890;28;20049;-62
2022/08/27 01:17:51;;;;;;;3.60;1.92;;;;;;;23.88;64.06;97858.59;5033042;28;20033;-60
2022/08/27 01:20:20;;;;;;;4.72;2.22;;;;;;;23.51;64.38;97835.31;5034206;28;20032;-61
2022/08/27 01:23:09;;;;;;;4.80;2.00;;;;;;;23.55;64.03;97847.84;5060470;28;20044;-62
2022/08/27 01:25:34;;;;;;;4.55;2.20;;;;;;;23.30;63.97;97853.63;5025756;28;20040;-61
2022/08/27 01:28:01;;;;;;;5.20;2.15;;;;;;;23.30;63.33;97850.19;5019002;28;20037;-62
2022/08/27 01:30:27;;;;;;;4.22;2.05;;;;;;;23.07;63.02;97806.13;5028578;28;20364;-61
2022/08/27 01:32:52;;;;;;;4.82;2.33;;;;;;;23.15;63.58;97842.84;5029943;28;20836;-61
2022/08/27 01:35:19;;;;;;;4.28;2.15;;;;;;;23.21;63.53;97850.59;5023417;28;20033;-62
2022/08/27 01:37:46;;;;;;;4.57;2.10;;;;;;;23.16;63.69;97842.59;5030449;28;20121;-62
2022/08/27 01:40:12;;;;;;;4.20;1.92;;;;;;;23.19;63.96;97847.38;5036211;28;20033;-62
2022/08/27 01:42:43;;;;;;;4.05;2.13;;;;;;;23.07;64.05;97854.63;5036908;28;20036;-61
2022/08/27 01:45:16;;;;;;;4.35;2.30;;;;;;;23.08;64.70;97856.25;5039494;28;20036;-61
2022/08/27 01:47:41;;;;;;;4.38;2.22;;;;;;;23.05;64.92;97859.38;5029022;28;20031;-62
2022/08/27 01:50:10;;;;;;;4.90;2.25;;;;;;;23.10;64.82;97856.81;5035185;28;20491;-61
2022/08/27 01:52:36;;;;;;;3.80;1.80;;;;;;;23.09;64.75;97857.88;5020589;28;20032;-61
2022/08/27 01:55:02;;;;;;;5.65;2.40;;;;;;;23.01;64.85;97850.28;5037404;28;20506;-60
2022/08/27 01:57:27;;;;;;;4.90;2.20;;;;;;;23.05;64.97;97856.72;5031934;28;20262;-60
2022/08/27 01:59:55;;;;;;;4.03;2.03;;;;;;;23.07;65.18;97859.94;5022952;28;20045;-60
2022/08/27 02:02:21;;;;;;;4.60;2.05;;;;;;;22.99;64.95;97849.72;5032981;28;20605;-61
2022/08/27 02:04:46;;;;;;;5.93;2.20;;;;;;;23.14;64.95;97857.13;5021510;28;20037;-60
2022/08/27 02:07:12;;;;;;;4.30;2.22;;;;;;;22.91;64.79;97824.44;5032578;28;20365;-60
2022/08/27 02:09:37;;;;;;;4.03;2.10;;;;;;;23.04;64.43;97839.25;5032707;28;20648;-61
2022/08/27 02:12:04;;;;;;;5.40;2.47;;;;;;;23.15;64.99;97862.19;5020173;28;20073;-61
2022/08/27 02:14:30;;;;;;;4.68;2.55;;;;;;;23.30;64.67;97868.75;5016357;28;20880;-60
2022/08/27 02:16:55;;;;;;;4.78;2.30;;;;;;;23.33;64.73;97855.81;5045443;28;20047;-60
2022/08/27 02:19:21;;;;;;;6.90;2.13;;;;;;;23.41;63.99;97855.34;5015833;28;20075;-60
2022/08/27 02:21:48;;;;;;;4.50;2.00;;;;;;;23.46;62.80;97859.16;5021827;28;20108;-61
2022/08/27 02:24:13;;;;;;;4.47;2.20;;;;;;;23.51;62.81;97860.00;5016842;28;20033;-61
2022/08/27 02:26:38;;;;;;;5.80;2.10;;;;;;;23.21;63.80;97863.06;5032654;28;20032;-60
2022/08/27 02:29:04;;;;;;;4.93;2.38;;;;;;;23.13;64.29;97848.38;5017500;28;20087;-61
2022/08/27 02:31:30;;;;;;;5.88;2.60;;;;;;;23.19;64.75;97862.50;5031154;28;20028;-60
2022/08/27 02:33:56;;;;;;;4.13;2.45;;;;;;;23.19;64.83;97863.28;5014680;28;20085;-61
2022/08/27 02:36:22;;;;;;;4.63;2.50;;;;;;;23.17;63.75;97861.94;5025703;28;20032;-60
2022/08/27 02:38:47;;;;;;;6.25;2.65;;;;;;;23.14;64.52;97865.06;5015284;28;20037;-60
2022/08/27 02:41:15;;;;;;;5.50;2.55;;;;;;;23.14;64.05;97857.91;5020471;28;20033;-59
2022/08/27 02:43:40;;;;;;;5.38;2.55;;;;;;;23.13;64.32;97860.84;5040291;28;20108;-61
2022/08/27 02:46:06;;;;;;;4.82;2.70;;;;;;;23.11;64.19;97857.59;5002037;28;20133;-61
2022/08/27 02:48:35;;;;;;;5.28;2.65;;;;;;;23.11;64.35;97854.94;5030854;28;20047;-62
2022/08/27 02:51:00;;;;;;;5.50;2.97;;;;;;;23.18;64.69;97864.34;5023302;28;20730;-60
2022/08/27 02:53:27;;;;;;;5.68;2.70;;;;;;;23.21;64.66;97863.06;5023167;28;20104;-61
2022/08/27 02:55:52;;;;;;;5.13;2.70;;;;;;;23.20;65.08;97861.44;5037164;28;20406;-60
2022/08/27 02:58:18;;;;;;;5.03;2.75;;;;;;;23.10;65.41;97864.75;5016876;28;20022;-62
2022/08/27 03:00:44;;;;;;;5.45;2.92;;;;;;;23.08;65.28;97858.91;5022235;28;20110;-61
2022/08/27 03:03:09;;;;;;;5.07;2.58;;;;;;;22.86;65.51;97842.13;5034439;28;20096;-60
2022/08/27 03:05:35;;;;;;;4.82;2.55;;;;;;;23.03;64.32;97843.69;5015622;28;20037;-60
2022/08/27 03:08:02;;;;;;;5.00;2.60;;;;;;;22.98;64.83;97840.16;5033753;28;20080;-60
2022/08/27 03:10:28;;;;;;;5.38;2.90;;;;;;;22.84;64.93;97819.31;5066933;28;20037;-60
2022/08/27 03:12:55;;;;;;;5.40;2.42;;;;;;;22.77;65.66;97821.31;5029075;28;20040;-60
2022/08/27 03:15:20;;;;;;;4.85;2.50;;;;;;;22.76;65.74;97811.78;5021468;28;20033;-61
2022/08/27 03:20:32;;;;;;;4.97;2.50;;;;;;;22.97;64.93;97843.88;5030102;28;20052;-61
2022/08/27 03:22:58;;;;;;;5.15;2.67;;;;;;;23.03;63.79;97837.59;5034657;28;20036;-61
2022/08/27 03:25:23;;;;;;;4.65;2.53;;;;;;;22.96;63.60;97839.59;5022038;28;20041;-61
2022/08/27 03:27:49;;;;;;;4.60;2.55;;;;;;;22.84;63.03;97818.50;5033397;28;20028;-63
2022/08/27 03:30:19;;;;;;;6.00;2.40;;;;;;;22.90;62.45;97811.44;5032638;28;20142;-61
2022/08/27 03:32:45;;;;;;;4.20;2.50;;;;;;;23.07;62.29;97840.59;5019477;28;20523;-63
2022/08/27 03:35:11;;;;;;;5.07;2.00;;;;;;;23.02;62.07;97838.66;5035646;28;20032;-60
2022/08/27 03:37:37;;;;;;;4.65;2.50;;;;;;;22.92;62.41;97835.84;5033121;28;20021;-61
2022/08/27 03:40:03;;;;;;;6.03;2.38;;;;;;;22.91;62.17;97840.34;5034915;28;20095;-61
2022/08/27 03:42:29;;;;;;;5.18;2.08;;;;;;;22.98;61.20;97842.81;5030865;28;20078;-61
2022/08/27 03:44:54;;;;;;;5.40;2.35;;;;;;;22.84;60.76;97806.06;5032408;28;20029;-61
2022/08/27 03:47:21;;;;;;;5.53;2.22;;;;;;;22.97;61.74;97839.38;5015183;28;20035;-60
2022/08/27 03:49:46;;;;;;;4.32;2.10;;;;;;;23.00;62.11;97843.41;5032767;28;20025;-61
2022/08/27 03:52:13;;;;;;;6.22;2.47;;;;;;;22.97;62.25;97847.31;5029734;28;20576;-61
2022/08/27 03:54:39;;;;;;;4.72;2.58;;;;;;;22.89;62.70;97838.97;5030157;28;20084;-61
2022/08/27 03:57:05;;;;;;;5.53;2.00;;;;;;;22.90;62.50;97845.88;5024409;28;20045;-61
2022/08/27 03:59:30;;;;;;;5.20;1.98;;;;;;;22.93;61.64;97846.22;5032903;28;20111;-63
2022/08/27 04:01:56;;;;;;;5.38;2.13;;;;;;;22.87;61.50;97839.22;5031051;28;20116;-60
2022/08/27 04:04:23;;;;;;;4.60;2.10;;;;;;;22.99;60.46;97845.22;5061397;28;20119;-60
2022/08/27 04:06:48;;;;;;;5.57;2.30;;;;;;;23.04;60.33;97833.94;5029681;28;20376;-60
2022/08/27 04:09:14;;;;;;;4.60;2.20;;;;;;;23.01;60.83;97831.72;5029395;28;20039;-60
2022/08/27 04:11:39;;;;;;;5.07;2.47;;;;;;;22.84;60.98;97818.50;5036572;28;20418;-60
2022/08/27 04:14:06;;;;;;;4.40;2.17;;;;;;;22.91;60.92;97845.66;5035662;28;20033;-62
2022/08/27 04:16:32;;;;;;;5.13;2.55;;;;;;;22.81;62.07;97835.69;5034405;28;20065;-62
2022/08/27 04:18:58;;;;;;;4.30;2.10;;;;;;;22.58;61.39;97806.72;5032221;28;20029;-61
2022/08/27 04:21:23;;;;;;;4.38;1.98;;;;;;;22.77;61.68;97841.72;5039567;28;20586;-61
2022/08/27 04:23:49;;;;;;;5.88;2.20;;;;;;;22.69;61.77;97831.53;5034286;28;20061;-61
2022/08/27 04:26:14;;;;;;;4.55;2.03;;;;;;;22.79;62.06;97845.72;5040182;28;20054;-60
2022/08/27 04:28:40;;;;;;;5.00;2.15;;;;;;;22.75;61.00;97852.56;5040169;28;20024;-61
2022/08/27 04:31:06;;;;;;;4.57;1.95;;;;;;;22.76;61.04;97840.94;5035261;28;20049;-62
2022/08/27 04:33:32;;;;;;;5.38;2.38;;;;;;;22.60;61.75;97818.69;5039469;28;20119;-61
2022/08/27 04:36:04;;;;;;;4.95;2.08;;;;;;;22.79;63.32;97848.38;5031508;28;20132;-61
2022/08/27 04:38:30;;;;;;;4.90;2.22;;;;;;;22.81;64.60;97851.59;5040233;28;20128;-61
2022/08/27 04:43:40;;;;;;;4.80;2.40;;;;;;;22.70;63.00;97844.53;5033697;28;20112;-61
2022/08/27 04:46:05;;;;;;;4.50;2.33;;;;;;;22.71;63.11;97851.44;5040454;28;20112;-61
2022/08/27 04:48:31;;;;;;;4.80;2.30;;;;;;;22.69;63.20;97850.06;5037662;28;20148;-61
2022/08/27 04:50:56;;;;;;;6.45;2.00;;;;;;;22.67;63.26;97849.50;5034576;28;20033;-61
2022/08/27 04:53:22;;;;;;;5.10;2.30;;;;;;;22.68;63.70;97856.44;5039354;28;20041;-60
2022/08/27 04:55:53;;;;;;;5.75;2.25;;;;;;;22.73;63.35;97854.66;5067524;28;20049;-61
2022/08/27 04:58:20;;;;;;;5.25;2.20;;;;;;;22.74;62.84;97850.94;5001652;28;20048;-61
2022/08/27 05:00:52;;;;;;;7.47;2.30;;;;;;;22.71;63.89;97850.63;5014622;28;20036;-61
2022/08/27 05:03:20;;;;;;;6.78;2.47;;;;;;;22.67;63.95;97833.63;5019671;28;20029;-60
2022/08/27 05:05:46;;;;;;;6.05;2.40;;;;;;;22.70;65.72;97843.75;5020781;28;20034;-60
2022/08/27 05:08:12;;;;;;;7.80;2.50;;;;;;;22.60;65.78;97842.53;5031438;28;20024;-61
2022/08/27 05:10:39;;;;;;;4.85;2.30;;;;;;;22.67;65.63;97844.22;5030473;28;20036;-60
2022/08/27 05:13:04;;;;;;;5.93;2.22;;;;;;;;;;5035608;28;20025;-61
2022/08/27 05:15:30;;;;;;;4.75;2.40;;;;;;;22.51;65.17;97848.50;5032548;28;20434;-61
2022/08/27 05:17:59;;;;;;;5.95;2.30;;;;;;;22.53;66.93;97868.38;5038996;28;20035;-61
2022/08/27 05:20:29;;;;;;;4.68;2.40;;;;;;;22.51;67.85;97853.78;5039344;28;20063;-61
2022/08/27 05:22:55;;;;;;;5.28;2.08;;;;;;;22.38;69.12;97858.34;5030871;28;20029;-61
2022/08/27 05:25:21;;;;;;;4.35;2.38;;;;;;;22.20;69.18;97821.47;5030392;28;20068;-61
2022/08/27 05:27:46;;;;;;;4.65;2.30;;;;;;;22.36;68.21;97844.53;5021130;28;20104;-62
2022/08/27 05:30:12;;;;;;;5.22;2.17;;;;;;;22.35;68.70;97856.16;5030915;28;20419;-62
2022/08/27 05:32:38;;;;;;;4.70;2.22;;;;;;;22.14;70.03;97817.09;5030841;28;20029;-61
2022/08/27 05:35:04;;;;;;;4.60;2.40;;;;;;;22.32;68.39;97855.84;5024493;28;20026;-60
2022/08/27 05:37:32;;;;;;;4.78;2.42;;;;;;;22.30;68.56;97850.78;5034079;28;20105;-60
2022/08/27 05:40:01;;;;;;;4.60;2.40;;;;;;;22.36;67.88;97857.78;5028731;28;20041;-60
2022/08/27 05:42:30;;;;;;;5.22;2.30;;;;;;;22.35;67.43;97858.03;5030380;28;20924;-62
2022/08/27 05:44:56;;;;;;;4.60;2.17;;;;;;;22.32;67.85;97853.19;5035852;28;20033;-61
2022/08/27 05:47:22;;;;;;;4.63;2.08;;;;;;;22.32;68.82;97858.50;5033333;28;20033;-61
2022/08/27 05:49:52;;;;;;;4.97;2.47;;;;;;;22.36;68.11;97854.31;5019835;28;20052;-62
2022/08/27 05:52:18;;;;;;;5.72;2.47;;;;;;;22.36;68.20;97864.91;5034188;28;20542;-62
2022/08/27 05:54:43;;;;;;;4.72;2.38;;;;;;;22.38;67.88;97868.94;5034622;28;20078;-62
2022/08/27 05:57:09;;;;;;;5.50;2.47;;;;;;;22.37;67.37;97863.88;5020622;28;20025;-61
2022/08/27 06:02:19;;;;;;;4.60;2.20;;;;;;;22.38;68.81;97870.75;5038264;28;20044;-61
2022/08/27 06:04:45;;;;;;;4.88;2.53;;;;;;;22.14;68.52;97841.75;5037477;28;20033;-62
2022/08/27 06:07:11;;;;;;;4.57;2.30;;;;;;;22.35;69.28;97868.63;5042895;28;20033;-61
2022/08/27 06:09:37;;;;;;;5.05;2.13;;;;;;;22.35;68.48;97868.63;5038129;28;20079;-61
2022/08/27 06:12:02;;;;;;;4.50;2.40;;;;;;;22.35;68.29;97871.25;4981493;28;20501;-61
2022/08/27 06:14:29;;;;;;;4.95;2.30;;;;;;;22.45;68.75;97880.19;5017221;28;20037;-62
2022/08/27 06:16:54;;;;;;;5.05;2.63;;;;;;;22.32;68.39;97853.19;5032725;28;20037;-61
2022/08/27 06:19:20;;;;;;;5.18;2.30;;;;;;;22.49;67.94;97884.97;5020432;28;20590;-61
2022/08/27 06:21:46;;;;;;;4.28;2.40;;;;;;;22.42;66.68;97874.56;5027437;28;20434;-61
2022/08/27 06:24:11;;;;;;;4.43;2.25;;;;;;;22.51;66.90;97889.00;5037788;28;20737;-62
2022/08/27 06:26:38;;;;;;;4.30;2.17;;;;;;;22.32;66.75;97845.25;5030306;28;20033;-62
2022/08/27 06:29:05;;;;;;;4.80;2.45;;;;;;;22.63;66.76;97884.47;5018348;28;20041;-62
2022/08/27 06:31:31;;;;;;;5.80;2.53;;;;;;;22.65;64.95;97884.19;5028722;28;20029;-62
2022/08/27 06:33:59;;;;;;;4.82;2.33;;;;;;;22.68;66.22;97893.53;5014649;28;20036;-61
2022/08/27 06:36:25;;;;;;;4.63;2.40;;;;;;;22.76;66.35;97879.84;5033838;28;20033;-61
2022/08/27 06:38:50;;;;;;;3.95;2.20;;;;;;;22.76;65.78;97890.47;5048161;28;20102;-61
2022/08/27 06:41:19;;;;;;;6.18;2.40;;;;;;;22.78;65.40;97891.84;5038367;28;20029;-61
2022/08/27 06:43:45;;;;;;;4.72;2.20;;;;;;;22.83;65.58;97883.16;5030123;28;20033;-61
2022/08/27 06:46:13;;;;;;;4.20;2.20;;;;;;;22.79;64.61;97890.78;5035607;28;20572;-61
2022/08/27 06:48:39;;;;;;;5.10;2.30;;;;;;;22.93;65.05;97885.97;5014740;28;20041;-61
2022/08/27 06:51:19;;;;;;;5.05;2.20;;;;;;;22.95;64.51;97891.81;5026746;28;20029;-61
2022/08/27 06:53:46;;;;;;;5.32;2.60;;;;;;;22.97;64.10;97892.38;5031616;28;20443;-62
2022/08/27 06:56:13;;;;;;;4.45;2.00;;;;;;;22.88;63.89;97856.72;5026925;28;20025;-60
2022/08/27 06:58:40;;;;;;;4.40;2.40;;;;;;;22.90;63.35;97853.84;5028711;28;20044;-60
2022/08/27 07:01:15;;;;;;;4.22;2.33;;;;;;;23.16;63.77;97885.00;5013493;28;21367;-61
2022/08/27 07:03:42;;;;;;;5.75;2.80;;;;;;;22.90;64.35;97856.50;5028438;28;20543;-62
2022/08/27 07:06:08;;;;;;;4.72;2.30;;;;;;;23.16;63.06;97887.66;5018743;28;20037;-61
2022/08/27 07:08:33;;;;;;;5.03;2.28;;;;;;;22.93;63.22;97861.31;5018617;28;20344;-61
2022/08/27 07:10:59;;;;;;;4.22;2.20;;;;;;;23.03;63.30;97890.59;5027814;28;20033;-61
2022/08/27 07:13:26;;;;;;;4.03;2.13;;;;;;;22.96;63.67;97869.59;5031630;28;20040;-61
2022/08/27 07:15:51;;;;;;;4.53;2.22;;;;;;;23.03;62.90;97885.31;5031786;28;20108;-61
2022/08/27 07:18:17;;;;;;;4.50;2.00;;;;;;;23.07;62.86;97894.41;5031364;28;20050;-61
2022/08/27 07:20:42;;;;;;;4.20;2.08;;;;;;;23.00;62.94;97865.41;5027202;28;20625;-61
2022/08/27 07:23:08;;;;;;;4.25;2.00;;;;;;;23.15;62.36;97891.34;5032004;28;20516;-60
2022/08/27 07:25:33;;;;;;;4.57;2.45;;;;;;;23.29;61.98;97898.94;5038210;28;20287;-60
2022/08/27 07:27:58;;;;;;;5.07;2.13;;;;;;;23.25;61.50;97892.53;5032782;28;20029;-61
2022/08/27 07:30:25;;;;;;;4.80;2.00;;;;;;;23.36;60.88;97897.72;5033081;28;20036;-62
2022/08/27 07:32:51;;;;;;;5.18;2.20;;;;;;;23.39;60.23;97901.75;5017804;28;20047;-62
2022/08/27 07:35:16;;;;;;;5.03;2.60;;;;;;;23.40;60.24;97903.34;5025045;28;20068;-61
2022/08/27 07:37:42;;;;;;;4.95;2.42;;;;;;;23.42;61.21;97912.69;5029977;28;20029;-61
2022/08/27 07:40:13;;;;;;;4.88;2.70;;;;;;;23.44;61.20;97908.97;5026447;28;20033;-61
2022/08/27 07:45:25;;;;;;;5.20;2.15;;;;;;;23.32;60.52;97878.06;5033567;28;20098;-60
2022/08/27 07:47:51;;;;;;;4.15;1.98;;;;;;;23.51;59.93;97897.16;5030311;28;20026;-61
2022/08/27 07:50:17;;;;;;;4.85;2.30;;;;;;;23.67;61.31;97907.94;5027863;28;20069;-62
2022/08/27 07:52:42;;;;;;;4.05;2.05;;;;;;;23.53;60.06;97910.13;5009917;28;20132;-61
2022/08/27 07:55:12;;;;;;;4.82;2.10;;;;;;;23.52;60.78;97916.50;5023377;28;20112;-62
2022/08/27 07:57:37;;;;;;;4.45;2.20;;;;;;;23.60;59.37;97911.59;5015060;28;20044;-62
2022/08/27 08:00:05;;;;;;;4.60;2.20;;;;;;;23.70;59.13;97918.06;5012971;28;20120;-61
2022/08/27 08:02:31;;;;;;;4.80;2.38;;;;;;;23.66;59.50;97919.63;5010265;28;20556;-63
2022/08/27 08:04:57;;;;;;;4.32;2.08;;;;;;;23.56;59.47;97899.03;5025866;28;20425;-61
2022/08/27 08:07:23;;;;;;;4.72;2.40;;;;;;;23.76;59.34;97927.69;5018584;28;20033;-61
2022/08/27 08:09:49;;;;;;;5.15;2.15;;;;;;;23.80;59.44;97931.47;5030438;28;20065;-65
2022/08/27 08:12:14;;;;;;;5.93;2.10;;;;;;;23.89;58.76;97935.31;5012731;28;20128;-62
2022/08/27 08:14:40;;;;;;;5.28;2.25;;;;;;;23.94;58.76;97932.72;5009945;28;20111;-62
2022/08/27 08:17:06;;;;;;;4.50;2.40;;;;;;;23.87;58.71;97910.06;5032142;28;20052;-62
2022/08/27 08:19:32;;;;;;;7.53;2.13;;;;;;;24.03;59.40;97937.59;5014298;28;20029;-62
2022/08/27 08:21:58;;;;;;;4.78;2.03;;;;;;;24.03;58.98;97942.91;5029979;28;20036;-61
2022/08/27 08:24:24;;;;;;;4.80;2.38;;;;;;;24.01;58.46;97943.16;5013406;28;20434;-61
2022/08/27 08:26:49;;;;;;;4.63;2.40;;;;;;;23.70;58.32;97921.53;5035029;28;20032;-62
2022/08/27 08:29:15;;;;;;;4.60;2.20;;;;;;;23.81;58.85;97943.72;5024984;28;20060;-61
2022/08/27 08:31:41;;;;;;;5.65;2.03;;;;;;;23.76;58.63;97946.28;5026494;28;20029;-63
2022/08/27 08:34:06;;;;;;;4.60;2.20;;;;;;;24.55;57.25;97942.41;5023325;28;20723;-60
2022/08/27 08:36:32;;;;;;;4.88;2.10;;;;;;;26.47;51.91;97946.72;5022387;28;20029;-61
2022/08/27 08:38:58;;;;;;;4.82;2.15;;;;;;;27.45;47.67;97906.69;5010480;28;20037;-62
2022/08/27 08:41:26;;;;;;;4.95;2.17;;;;;;;27.99;45.80;97940.69;5030391;28;20468;-60
2022/08/27 08:43:52;;;;;;;4.20;1.80;;;;;;;28.70;45.17;97939.47;5027129;28;20076;-61
2022/08/27 08:46:32;;;;;;;4.65;2.10;;;;;;;28.56;45.16;97950.00;5054677;28;20574;-61
2022/08/27 08:49:01;;;;;;;4.85;2.28;;;;;;;28.30;45.85;97940.53;5017658;28;20314;-61
2022/08/27 08:51:40;;;;;;;4.10;2.47;;;;;;;27.83;49.26;97947.94;5025829;28;20380;-60
2022/08/27 08:54:09;;;;;;;4.78;2.45;;;;;;;26.81;50.76;97952.34;5022575;28;20252;-61
2022/08/27 08:56:55;;;;;;;4.20;2.20;;;;;;;25.87;53.72;97946.25;5019994;28;20113;-61
2022/08/27 08:59:51;;;;;;;4.88;2.80;;;;;;;25.69;55.20;97947.50;5023626;28;20056;-61
2022/08/27 09:02:17;;;;;;;4.38;2.30;;;;;;;25.49;55.43;97941.00;5026136;28;20072;-61
2022/08/27 09:04:43;;;;;;;4.65;2.33;;;;;;;25.44;56.57;97948.94;5010821;28;20504;-61
2022/08/27 09:07:13;;;;;;;4.35;2.35;;;;;;;25.30;57.01;97951.28;5046099;28;20029;-62
2022/08/27 09:09:47;;;;;;;5.35;2.30;;;;;;;25.25;55.67;97964.53;5065343;28;20043;-61
2022/08/27 09:12:18;;;;;;;3.90;2.05;;;;;;;25.25;55.75;97958.44;5024944;28;20033;-61
2022/08/27 09:14:58;;;;;;;4.35;2.15;;;;;;;25.26;55.71;97960.84;5015060;28;20045;-61
2022/08/27 09:17:24;;;;;;;6.07;2.40;;;;;;;25.22;56.79;97956.25;5034420;28;20029;-61
2022/08/27 09:19:49;;;;;;;6.00;2.50;;;;;;;25.29;56.19;97964.84;5026526;28;20083;-61
2022/08/27 09:22:24;;;;;;;4.20;2.20;;;;;;;24.99;56.69;97930.81;5039722;28;20974;-61
2022/08/27 09:25:13;;;;;;;4.82;2.60;;;;;;;25.13;56.02;97959.38;5032159;28;20033;-60
2022/08/27 09:27:41;;;;;;;4.70;2.40;;;;;;;25.07;56.72;97946.31;5033952;28;20029;-61
2022/08/27 09:30:13;;;;;;;5.93;2.47;;;;;;;25.16;56.46;97962.59;5034218;28;20040;-61
2022/08/27 09:32:39;;;;;;;5.45;2.25;;;;;;;25.20;56.34;97959.16;5017725;28;20045;-61
2022/08/27 09:35:07;;;;;;;5.07;2.30;;;;;;;24.97;56.77;97932.91;5031809;28;20052;-61
2022/08/27 09:37:41;;;;;;;4.25;2.00;;;;;;;25.31;56.87;97955.53;5012401;28;20049;-61
2022/08/27 09:40:10;;;;;;;4.20;2.33;;;;;;;25.22;56.13;97946.41;5022358;28;20676;-61
2022/08/27 09:43:18;;;;;;;4.47;1.95;;;;;;;25.30;56.72;97951.28;5040589;28;20110;-60
2022/08/27 09:45:55;;;;;;;5.22;2.40;;;;;;;25.24;57.34;97946.97;5013043;28;20091;-60
2022/08/27 09:48:30;;;;;;;4.55;2.47;;;;;;;25.28;57.18;97945.41;5047536;28;20036;-60
2022/08/27 09:51:18;;;;;;;4.65;2.10;;;;;;;25.30;57.37;97940.63;5025754;28;20029;-61
2022/08/27 09:53:49;;;;;;;4.78;2.50;;;;;;;25.39;57.47;97934.81;5014714;28;20029;-61
2022/08/27 09:56:31;;;;;;;3.80;2.20;;;;;;;25.63;55.11;97941.34;5033888;28;20037;-60
2022/08/27 09:59:05;;;;;;;4.97;2.20;;;;;;;25.73;55.20;97940.59;5033904;28;20029;-60
2022/08/27 10:01:33;;;;;;;4.65;2.10;;;;;;;25.67;55.64;97934.44;5032707;28;20029;-60
2022/08/27 10:04:14;;;;;;;4.28;2.30;;;;;;;25.57;54.93;97941.56;5035923;28;20067;-60
2022/08/27 10:06:48;;;;;;;4.32;2.42;;;;;;;25.67;55.97;97936.31;5050450;28;20025;-61
2022/08/27 10:09:19;;;;;;;6.18;2.33;;;;;;;25.67;55.09;97941.63;5059614;28;20032;-60
2022/08/27 10:12:08;;;;;;;4.75;2.33;;;;;;;25.83;53.98;97937.97;5013241;28;20047;-60
2022/08/27 10:14:39;;;;;;;4.20;2.10;;;;;;;26.15;51.34;97939.69;5019198;28;20032;-64
2022/08/27 10:17:10;;;;;;;6.40;2.13;;;;;;;26.37;47.28;97904.06;5031478;28;20547;-59
2022/08/27 10:19:47;;;;;;;5.47;1.95;;;;;;;26.66;45.99;97937.16;5031185;28;20028;-61
2022/08/27 10:22:31;;;;;;;4.40;2.25;;;;;;;26.83;45.33;97930.75;5037101;28;20041;-62
2022/08/27 10:25:06;;;;;;;4.05;1.90;;;;;;;26.83;45.56;97928.09;5036813;28;20427;-60
2022/08/27 10:27:55;;;;;;;4.55;1.88;;;;;;;27.04;44.43;97932.34;5024742;28;20029;-61
2022/08/27 10:30:31;;;;;;;5.43;1.90;;;;;;;27.05;45.13;97930.47;5027686;28;20036;-61
2022/08/27 10:33:11;;;;;;;4.35;2.08;;;;;;;26.94;44.64;97911.03;5008344;28;20025;-60
2022/08/27 10:35:55;;;;;;;6.00;2.20;;;;;;;27.19;44.18;97928.84;5032649;28;20310;-60
2022/08/27 10:38:29;;;;;;;4.93;2.40;;;;;;;26.98;44.67;97906.75;5038785;28;20071;-61
2022/08/27 10:41:06;;;;;;;4.05;1.90;;;;;;;27.14;44.57;97925.41;5018583;28;20052;-61
2022/08/27 10:43:49;;;;;;;3.67;1.70;;;;;;;27.20;44.66;97935.00;5035820;28;20492;-60
2022/08/27 10:46:42;;;;;;;4.22;1.90;;;;;;;27.30;44.05;97935.00;5036547;28;20048;-59
2022/08/27 10:49:29;;;;;;;4.40;2.10;;;;;;;27.27;44.07;97906.22;5032000;28;20520;-61
2022/08/27 10:52:08;;;;;;;4.90;1.90;;;;;;;27.18;44.03;97891.75;5038517;28;20039;-61
2022/08/27 10:54:39;;;;;;;3.75;1.80;;;;;;;27.44;44.00;97923.78;5007492;28;20036;-60
2022/08/27 10:57:12;;;;;;;5.32;2.30;;;;;;;27.59;43.45;97916.50;5037046;28;20467;-61
2022/08/27 10:59:56;;;;;;;4.68;2.00;;;;;;;27.71;43.08;97907.38;5027844;28;20423;-60
2022/08/27 11:02:32;;;;;;;3.75;1.83;;;;;;;27.47;43.31;97881.31;5035332;28;20043;-59
2022/08/27 11:05:01;;;;;;;5.15;2.00;;;;;;;27.60;43.93;97895.97;5061963;28;20404;-60
2022/08/27 11:07:31;;;;;;;4.38;2.00;;;;;;;27.72;43.39;97899.09;5033218;28;20029;-61
2022/08/27 11:10:00;;;;;;;4.60;2.20;;;;;;;27.56;43.80;97863.69;5011447;28;20183;-60
2022/08/27 11:12:31;;;;;;;5.38;2.05;;;;;;;27.76;43.36;97888.66;5036253;28;20021;-62
2022/08/27 11:14:59;;;;;;;4.10;1.95;;;;;;;27.92;42.50;97873.41;5014415;28;20072;-60
2022/08/27 11:17:45;;;;;;;4.43;2.05;;;;;;;27.85;42.18;97865.66;5017183;28;20112;-62
2022/08/27 11:20:10;;;;;;;4.15;2.20;;;;;;;27.88;42.81;97877.69;5018747;28;20108;-60
2022/08/27 11:22:45;;;;;;;5.55;2.05;;;;;;;27.94;43.02;97877.38;5032917;28;20063;-60
2022/08/27 11:25:32;;;;;;;4.38;2.30;;;;;;;28.06;42.23;97882.41;5025696;28;20028;-61
2022/08/27 11:27:58;;;;;;;7.90;2.20;;;;;;;28.10;41.96;97882.66;5026186;28;20033;-60
2022/08/27 11:31:00;;;;;;;5.25;2.30;;;;;;;27.94;43.01;97856.00;5026285;28;20025;-59
2022/08/27 11:33:25;;;;;;;5.28;2.28;;;;;;;28.23;42.48;97873.22;5064929;28;20032;-60
2022/08/27 11:36:03;;;;;;;5.97;2.38;;;;;;;28.30;42.96;97884.41;5019569;28;20658;-60
2022/08/27 11:38:44;;;;;;;5.22;2.20;;;;;;;28.37;43.09;97883.00;5024717;28;20037;-60
2022/08/27 11:41:28;;;;;;;4.40;2.20;;;;;;;28.50;42.81;97878.09;5015970;28;20033;-61
2022/08/27 11:43:54;;;;;;;5.45;2.00;;;;;;;28.50;42.52;97848.69;5034098;28;20025;-60
2022/08/27 11:46:23;;;;;;;4.55;2.20;;;;;;;28.54;42.49;97847.06;5018370;28;20094;-61
2022/08/27 11:48:58;;;;;;;6.07;2.25;;;;;;;28.61;42.02;97866.28;5029681;28;20032;-60
2022/08/27 11:51:38;;;;;;;4.53;2.40;;;;;;;28.70;42.75;97871.81;5015474;28;20030;-60
2022/08/27 11:54:09;;;;;;;5.32;2.45;;;;;;;28.74;41.73;97846.09;5044378;28;20146;-60